sensor_id;sensor_type;location;lat;lon;timestamp;pressure;altitude;pressure_sealevel;temperature;humidity
48089;BME280;33867;50.314;7.802;2023-02-18T00:01:16;101157.44;;;9.99;nan
48089;BME280;33867;50.314;7.802;2023-02-18T00:04:36;101159.25;;;9.98;nan
48089;BME280;33867;50.314;7.802;2023-02-18T00:07:55;101161.22;;;9.96;nan
48089;BME280;33867;50.314;7.802;2023-02-18T00:11:15;101155.56;;;9.88;nan
48089;BME280;33867;50.314;7.802;2023-02-18T00:14:35;101162.41;;;9.92;nan
48089;BME280;33867;50.314;7.802;2023-02-18T00:17:54;101165.63;;;9.97;nan
48089;BME280;33867;50.314;7.802;2023-02-18T00:21:13;101155.94;;;10.06;nan
48089;BME280;33867;50.314;7.802;2023-02-18T00:24:32;101164.38;;;9.90;nan
48089;BME280;33867;50.314;7.802;2023-02-18T00:27:51;101158.66;;;9.94;nan
48089;BME280;33867;50.314;7.802;2023-02-18T00:31:16;101175.41;;;9.98;nan
48089;BME280;33867;50.314;7.802;2023-02-18T00:34:36;101177.94;;;9.88;nan
48089;BME280;33867;50.314;7.802;2023-02-18T00:37:57;101179.06;;;9.97;nan
48089;BME280;33867;50.314;7.802;2023-02-18T00:41:17;101172.31;;;9.91;nan
48089;BME280;33867;50.314;7.802;2023-02-18T00:44:36;101173.81;;;9.95;nan
48089;BME280;33867;50.314;7.802;2023-02-18T00:47:55;101170.50;;;9.92;nan
48089;BME280;33867;50.314;7.802;2023-02-18T00:51:14;101163.75;;;9.75;nan
48089;BME280;33867;50.314;7.802;2023-02-18T00:54:33;101163.00;;;9.73;nan
48089;BME280;33867;50.314;7.802;2023-02-18T00:57:52;101164.31;;;9.67;nan
48089;BME280;33867;50.314;7.802;2023-02-18T01:01:35;101159.59;;;9.71;nan
48089;BME280;33867;50.314;7.802;2023-02-18T01:04:54;101165.06;;;9.70;nan
48089;BME280;33867;50.314;7.802;2023-02-18T01:08:13;101160.19;;;9.75;nan
48089;BME280;33867;50.314;7.802;2023-02-18T01:11:32;101148.72;;;9.73;nan
48089;BME280;33867;50.314;7.802;2023-02-18T01:14:51;101153.44;;;9.69;nan
48089;BME280;33867;50.314;7.802;2023-02-18T01:18:11;101168.59;;;9.70;nan
48089;BME280;33867;50.314;7.802;2023-02-18T01:21:31;101162.75;;;9.76;nan
48089;BME280;33867;50.314;7.802;2023-02-18T01:24:50;101141.13;;;9.78;nan
48089;BME280;33867;50.314;7.802;2023-02-18T01:28:11;101143.09;;;9.87;nan
48089;BME280;33867;50.314;7.802;2023-02-18T01:31:30;101137.00;;;9.85;nan
48089;BME280;33867;50.314;7.802;2023-02-18T01:34:51;101137.00;;;9.96;nan
48089;BME280;33867;50.314;7.802;2023-02-18T01:38:10;101133.94;;;10.01;nan
48089;BME280;33867;50.314;7.802;2023-02-18T01:41:29;101124.78;;;10.03;nan
48089;BME280;33867;50.314;7.802;2023-02-18T01:44:49;101126.47;;;10.04;nan
48089;BME280;33867;50.314;7.802;2023-02-18T01:48:16;101123.03;;;9.91;nan
48089;BME280;33867;50.314;7.802;2023-02-18T01:51:38;101120.59;;;9.88;nan
48089;BME280;33867;50.314;7.802;2023-02-18T01:54:59;101132.81;;;9.92;nan
48089;BME280;33867;50.314;7.802;2023-02-18T01:58:20;101123.56;;;9.96;nan
48089;BME280;33867;50.314;7.802;2023-02-18T02:01:41;101113.66;;;9.96;nan
48089;BME280;33867;50.314;7.802;2023-02-18T02:05:02;101111.81;;;9.97;nan
48089;BME280;33867;50.314;7.802;2023-02-18T02:08:21;101104.47;;;9.99;nan
48089;BME280;33867;50.314;7.802;2023-02-18T02:12:10;101100.22;;;9.96;nan
48089;BME280;33867;50.314;7.802;2023-02-18T02:15:48;101100.22;;;9.96;nan
48089;BME280;33867;50.314;7.802;2023-02-18T02:19:42;101091.50;;;9.93;nan
48089;BME280;33867;50.314;7.802;2023-02-18T02:27:25;101081.72;;;9.92;nan
48089;BME280;33867;50.314;7.802;2023-02-18T02:38:43;101072.66;;;9.82;nan
48089;BME280;33867;50.314;7.802;2023-02-18T02:46:16;101075.34;;;9.93;nan
48089;BME280;33867;50.314;7.802;2023-02-18T02:53:19;101074.41;;;9.83;nan
48089;BME280;33867;50.314;7.802;2023-02-18T02:56:40;101084.28;;;9.82;nan
48089;BME280;33867;50.314;7.802;2023-02-18T03:00:05;101067.53;;;9.79;nan
48089;BME280;33867;50.314;7.802;2023-02-18T03:03:34;101069.97;;;9.93;nan
48089;BME280;33867;50.314;7.802;2023-02-18T03:11:05;101056.53;;;9.93;nan
48089;BME280;33867;50.314;7.802;2023-02-18T03:14:34;101060.31;;;9.90;nan
48089;BME280;33867;50.314;7.802;2023-02-18T03:18:07;101061.81;;;9.94;nan
48089;BME280;33867;50.314;7.802;2023-02-18T03:25:09;101062.66;;;9.95;nan
48089;BME280;33867;50.314;7.802;2023-02-18T03:28:32;101055.78;;;9.91;nan
48089;BME280;33867;50.314;7.802;2023-02-18T03:31:58;101052.63;;;9.97;nan
48089;BME280;33867;50.314;7.802;2023-02-18T03:35:18;101047.25;;;9.86;nan
48089;BME280;33867;50.314;7.802;2023-02-18T03:38:54;101052.00;;;9.82;nan
48089;BME280;33867;50.314;7.802;2023-02-18T03:42:16;101041.38;;;9.92;nan
48089;BME280;33867;50.314;7.802;2023-02-18T03:45:37;101031.97;;;9.86;nan
48089;BME280;33867;50.314;7.802;2023-02-18T03:48:56;101027.56;;;9.85;nan
48089;BME280;33867;50.314;7.802;2023-02-18T03:52:16;101034.28;;;9.91;nan
48089;BME280;33867;50.314;7.802;2023-02-18T03:55:35;101031.00;;;9.87;nan
48089;BME280;33867;50.314;7.802;2023-02-18T03:58:54;101021.69;;;9.80;nan
48089;BME280;33867;50.314;7.802;2023-02-18T04:02:13;101022.66;;;9.90;nan
48089;BME280;33867;50.314;7.802;2023-02-18T04:05:32;101028.91;;;9.91;nan
48089;BME280;33867;50.314;7.802;2023-02-18T04:08:51;101019.13;;;9.90;nan
48089;BME280;33867;50.314;7.802;2023-02-18T04:12:10;101007.88;;;9.85;nan
48089;BME280;33867;50.314;7.802;2023-02-18T04:15:29;101027.91;;;9.92;nan
48089;BME280;33867;50.314;7.802;2023-02-18T04:18:49;101013.50;;;9.82;nan
48089;BME280;33867;50.314;7.802;2023-02-18T04:22:08;101018.88;;;9.93;nan
48089;BME280;33867;50.314;7.802;2023-02-18T04:25:27;101014.25;;;9.95;nan
48089;BME280;33867;50.314;7.802;2023-02-18T04:33:00;101009.72;;;9.95;nan
48089;BME280;33867;50.314;7.802;2023-02-18T04:36:35;101004.69;;;10.02;nan
48089;BME280;33867;50.314;7.802;2023-02-18T04:39:54;100996.34;;;10.05;nan
48089;BME280;33867;50.314;7.802;2023-02-18T04:43:15;100997.84;;;9.98;nan
48089;BME280;33867;50.314;7.802;2023-02-18T04:46:35;100998.47;;;9.90;nan
48089;BME280;33867;50.314;7.802;2023-02-18T04:49:54;100988.69;;;9.89;nan
48089;BME280;33867;50.314;7.802;2023-02-18T04:53:13;100989.28;;;9.93;nan
48089;BME280;33867;50.314;7.802;2023-02-18T04:56:32;100990.97;;;9.94;nan
48089;BME280;33867;50.314;7.802;2023-02-18T04:59:51;100985.84;;;9.91;nan
48089;BME280;33867;50.314;7.802;2023-02-18T05:03:10;100968.28;;;9.87;nan
48089;BME280;33867;50.314;7.802;2023-02-18T05:06:29;100963.75;;;9.87;nan
48089;BME280;33867;50.314;7.802;2023-02-18T05:09:48;100961.66;;;9.91;nan
48089;BME280;33867;50.314;7.802;2023-02-18T05:13:07;100976.09;;;9.90;nan
48089;BME280;33867;50.314;7.802;2023-02-18T05:16:26;100977.06;;;9.89;nan
48089;BME280;33867;50.314;7.802;2023-02-18T05:19:46;100972.53;;;9.89;nan
48089;BME280;33867;50.314;7.802;2023-02-18T05:23:05;100982.31;;;9.90;nan
48089;BME280;33867;50.314;7.802;2023-02-18T05:26:24;100960.06;;;9.88;nan
48089;BME280;33867;50.314;7.802;2023-02-18T05:29:43;100963.13;;;9.95;nan
48089;BME280;33867;50.314;7.802;2023-02-18T05:33:02;100962.63;;;9.90;nan
48089;BME280;33867;50.314;7.802;2023-02-18T05:36:21;100959.22;;;9.88;nan
48089;BME280;33867;50.314;7.802;2023-02-18T05:39:40;100952.72;;;9.90;nan
48089;BME280;33867;50.314;7.802;2023-02-18T05:43:00;100938.28;;;9.91;nan
48089;BME280;33867;50.314;7.802;2023-02-18T05:46:19;100937.09;;;9.95;nan
48089;BME280;33867;50.314;7.802;2023-02-18T06:14:15;100909.09;;;9.87;nan
48089;BME280;33867;50.314;7.802;2023-02-18T06:17:34;100913.50;;;9.77;nan
48089;BME280;33867;50.314;7.802;2023-02-18T06:20:53;100923.66;;;9.73;nan
48089;BME280;33867;50.314;7.802;2023-02-18T06:24:12;100922.94;;;9.71;nan
48089;BME280;33867;50.314;7.802;2023-02-18T06:27:31;100912.81;;;9.63;nan
48089;BME280;33867;50.314;7.802;2023-02-18T06:30:50;100924.88;;;9.58;nan
48089;BME280;33867;50.314;7.802;2023-02-18T06:34:09;100921.34;;;9.46;nan
48089;BME280;33867;50.314;7.802;2023-02-18T06:37:29;100932.22;;;9.56;nan
48089;BME280;33867;50.314;7.802;2023-02-18T06:44:18;100920.63;;;9.44;nan
48089;BME280;33867;50.314;7.802;2023-02-18T06:47:37;100933.47;;;9.52;nan
48089;BME280;33867;50.314;7.802;2023-02-18T06:50:56;100921.22;;;9.59;nan
48089;BME280;33867;50.314;7.802;2023-02-18T06:54:15;100921.13;;;9.72;nan
48089;BME280;33867;50.314;7.802;2023-02-18T06:57:35;100921.13;;;9.72;nan
48089;BME280;33867;50.314;7.802;2023-02-18T07:00:53;100912.06;;;9.73;nan
48089;BME280;33867;50.314;7.802;2023-02-18T07:04:13;100910.94;;;9.75;nan
48089;BME280;33867;50.314;7.802;2023-02-18T07:07:32;100917.16;;;9.87;nan
48089;BME280;33867;50.314;7.802;2023-02-18T07:14:22;100914.72;;;9.95;nan
48089;BME280;33867;50.314;7.802;2023-02-18T07:17:42;100913.09;;;9.92;nan
48089;BME280;33867;50.314;7.802;2023-02-18T07:38:40;100915.00;;;10.13;nan
48089;BME280;33867;50.314;7.802;2023-02-18T07:42:01;100905.09;;;10.13;nan
48089;BME280;33867;50.314;7.802;2023-02-18T07:45:24;100898.00;;;10.12;nan
48089;BME280;33867;50.314;7.802;2023-02-18T07:48:43;100897.38;;;10.31;nan
48089;BME280;33867;50.314;7.802;2023-02-18T07:52:03;100903.13;;;10.27;nan
48089;BME280;33867;50.314;7.802;2023-02-18T07:55:21;100896.97;;;10.36;nan
48089;BME280;33867;50.314;7.802;2023-02-18T07:58:41;100898.81;;;10.35;nan
48089;BME280;33867;50.314;7.802;2023-02-18T08:02:00;100914.63;;;10.29;nan
48089;BME280;33867;50.314;7.802;2023-02-18T08:05:19;100905.81;;;10.27;nan
48089;BME280;33867;50.314;7.802;2023-02-18T08:08:38;100907.78;;;10.24;nan
48089;BME280;33867;50.314;7.802;2023-02-18T08:11:57;100916.59;;;10.27;nan
48089;BME280;33867;50.314;7.802;2023-02-18T08:15:16;100927.63;;;10.23;nan
48089;BME280;33867;50.314;7.802;2023-02-18T08:18:35;100929.06;;;10.28;nan
48089;BME280;33867;50.314;7.802;2023-02-18T08:25:14;100938.00;;;10.17;nan
48089;BME280;33867;50.314;7.802;2023-02-18T08:28:33;100926.59;;;10.36;nan
48089;BME280;33867;50.314;7.802;2023-02-18T08:31:52;100924.13;;;10.44;nan
48089;BME280;33867;50.314;7.802;2023-02-18T08:35:12;100934.91;;;10.44;nan
48089;BME280;33867;50.314;7.802;2023-02-18T08:38:32;100935.22;;;10.50;nan
48089;BME280;33867;50.314;7.802;2023-02-18T08:41:51;100933.84;;;10.56;nan
48089;BME280;33867;50.314;7.802;2023-02-18T08:45:10;100945.97;;;10.50;nan
48089;BME280;33867;50.314;7.802;2023-02-18T08:48:29;100938.88;;;10.49;nan
48089;BME280;33867;50.314;7.802;2023-02-18T08:51:49;100931.88;;;10.58;nan
48089;BME280;33867;50.314;7.802;2023-02-18T08:55:08;100942.91;;;10.76;nan
48089;BME280;33867;50.314;7.802;2023-02-18T08:58:27;100933.28;;;10.73;nan
48089;BME280;33867;50.314;7.802;2023-02-18T09:01:46;100925.72;;;10.67;nan
48089;BME280;33867;50.314;7.802;2023-02-18T09:05:05;100940.91;;;10.68;nan
48089;BME280;33867;50.314;7.802;2023-02-18T09:08:25;100927.34;;;10.59;nan
48089;BME280;33867;50.314;7.802;2023-02-18T09:11:45;100944.72;;;10.66;nan
48089;BME280;33867;50.314;7.802;2023-02-18T09:15:04;100940.91;;;10.68;nan
48089;BME280;33867;50.314;7.802;2023-02-18T09:18:23;100951.41;;;10.71;nan
48089;BME280;33867;50.314;7.802;2023-02-18T09:21:43;100965.78;;;10.61;nan
48089;BME280;33867;50.314;7.802;2023-02-18T09:25:02;100943.47;;;10.70;nan
48089;BME280;33867;50.314;7.802;2023-02-18T09:28:22;100952.91;;;10.64;nan
48089;BME280;33867;50.314;7.802;2023-02-18T09:31:42;100955.13;;;10.59;nan
48089;BME280;33867;50.314;7.802;2023-02-18T09:35:02;100948.25;;;10.66;nan
48089;BME280;33867;50.314;7.802;2023-02-18T09:38:21;100954.91;;;10.51;nan
48089;BME280;33867;50.314;7.802;2023-02-18T09:41:49;100965.13;;;10.68;nan
48089;BME280;33867;50.314;7.802;2023-02-18T09:45:17;100959.28;;;10.63;nan
48089;BME280;33867;50.314;7.802;2023-02-18T09:48:36;100963.44;;;10.67;nan
48089;BME280;33867;50.314;7.802;2023-02-18T09:52:09;100972.53;;;10.55;nan
48089;BME280;33867;50.314;7.802;2023-02-18T09:55:32;100967.75;;;10.59;nan
48089;BME280;33867;50.314;7.802;2023-02-18T09:58:56;100976.69;;;10.59;nan
48089;BME280;33867;50.314;7.802;2023-02-18T10:06:31;100976.41;;;10.62;nan
48089;BME280;33867;50.314;7.802;2023-02-18T10:14:02;100956.47;;;10.53;nan
48089;BME280;33867;50.314;7.802;2023-02-18T10:17:33;100953.50;;;10.68;nan
48089;BME280;33867;50.314;7.802;2023-02-18T10:21:28;100946.47;;;10.97;nan
48089;BME280;33867;50.314;7.802;2023-02-18T10:28:43;100936.31;;;10.80;nan
48089;BME280;33867;50.314;7.802;2023-02-18T10:32:51;100942.28;;;10.83;nan
48089;BME280;33867;50.314;7.802;2023-02-18T10:36:48;100934.78;;;10.66;nan
48089;BME280;33867;50.314;7.802;2023-02-18T10:48:27;100919.47;;;10.88;nan
48089;BME280;33867;50.314;7.802;2023-02-18T10:52:27;100910.72;;;10.74;nan
48089;BME280;33867;50.314;7.802;2023-02-18T10:55:52;100913.19;;;10.77;nan
48089;BME280;33867;50.314;7.802;2023-02-18T10:59:30;100906.28;;;10.84;nan
48089;BME280;33867;50.314;7.802;2023-02-18T11:03:15;100910.09;;;10.82;nan
48089;BME280;33867;50.314;7.802;2023-02-18T11:06:43;100909.88;;;10.74;nan
48089;BME280;33867;50.314;7.802;2023-02-18T11:10:14;100914.75;;;10.59;nan
48089;BME280;33867;50.314;7.802;2023-02-18T11:13:35;100911.06;;;10.60;nan
48089;BME280;33867;50.314;7.802;2023-02-18T11:17:07;100902.41;;;10.57;nan
48089;BME280;33867;50.314;7.802;2023-02-18T11:20:33;100889.31;;;10.52;nan
48089;BME280;33867;50.314;7.802;2023-02-18T11:23:57;100896.25;;;10.66;nan
48089;BME280;33867;50.314;7.802;2023-02-18T11:27:53;100877.50;;;10.64;nan
48089;BME280;33867;50.314;7.802;2023-02-18T11:32:03;100872.38;;;10.61;nan
48089;BME280;33867;50.314;7.802;2023-02-18T11:35:48;100864.81;;;10.76;nan
48089;BME280;33867;50.314;7.802;2023-02-18T11:43:17;100869.09;;;11.09;nan
48089;BME280;33867;50.314;7.802;2023-02-18T11:46:55;100839.19;;;11.12;nan
48089;BME280;33867;50.314;7.802;2023-02-18T11:58:00;100837.34;;;11.43;nan
48089;BME280;33867;50.314;7.802;2023-02-18T12:06:15;100848.16;;;11.53;nan
48089;BME280;33867;50.314;7.802;2023-02-18T12:10:11;100848.44;;;11.50;nan
48089;BME280;33867;50.314;7.802;2023-02-18T12:13:56;100849.97;;;11.42;nan
48089;BME280;33867;50.314;7.802;2023-02-18T12:51:58;100863.97;;;10.75;nan
48089;BME280;33867;50.314;7.802;2023-02-18T12:59:53;100872.84;;;11.18;nan
48089;BME280;33867;50.314;7.802;2023-02-18T13:08:47;100865.44;;;11.40;nan
48089;BME280;33867;50.314;7.802;2023-02-18T13:16:53;100872.34;;;11.33;nan
48089;BME280;33867;50.314;7.802;2023-02-18T13:20:55;100853.31;;;11.35;nan
48089;BME280;33867;50.314;7.802;2023-02-18T13:24:37;100870.00;;;11.19;nan
48089;BME280;33867;50.314;7.802;2023-02-18T13:31:40;100861.13;;;10.98;nan
48089;BME280;33867;50.314;7.802;2023-02-18T13:35:18;100862.75;;;10.89;nan
48089;BME280;33867;50.314;7.802;2023-02-18T13:45:38;100868.81;;;10.61;nan
48089;BME280;33867;50.314;7.802;2023-02-18T13:49:25;100869.47;;;10.53;nan
48089;BME280;33867;50.314;7.802;2023-02-18T13:52:49;100878.09;;;10.47;nan
48089;BME280;33867;50.314;7.802;2023-02-18T14:00:53;100866.56;;;10.24;nan
48089;BME280;33867;50.314;7.802;2023-02-18T14:04:47;100873.53;;;10.15;nan
48089;BME280;33867;50.314;7.802;2023-02-18T14:08:28;100877.69;;;10.19;nan
48089;BME280;33867;50.314;7.802;2023-02-18T14:15:59;100870.69;;;10.28;nan
48089;BME280;33867;50.314;7.802;2023-02-18T14:19:27;100879.25;;;10.33;nan
48089;BME280;33867;50.314;7.802;2023-02-18T14:22:51;100873.59;;;10.36;nan
48089;BME280;33867;50.314;7.802;2023-02-18T14:29:33;100868.31;;;10.46;nan
48089;BME280;33867;50.314;7.802;2023-02-18T14:32:56;100861.50;;;10.42;nan
48089;BME280;33867;50.314;7.802;2023-02-18T14:36:42;100862.38;;;10.52;nan
48089;BME280;33867;50.314;7.802;2023-02-18T14:40:39;100855.31;;;10.19;nan
48089;BME280;33867;50.314;7.802;2023-02-18T14:51:05;100855.81;;;10.13;nan
48089;BME280;33867;50.314;7.802;2023-02-18T14:54:25;100859.94;;;10.28;nan
48089;BME280;33867;50.314;7.802;2023-02-18T14:58:07;100857.88;;;10.20;nan
48089;BME280;33867;50.314;7.802;2023-02-18T15:01:32;100845.25;;;10.32;nan
48089;BME280;33867;50.314;7.802;2023-02-18T15:04:52;100854.94;;;10.23;nan
48089;BME280;33867;50.314;7.802;2023-02-18T15:08:21;100853.72;;;10.16;nan
48089;BME280;33867;50.314;7.802;2023-02-18T15:11:50;100852.72;;;10.17;nan
48089;BME280;33867;50.314;7.802;2023-02-18T15:15:13;100842.50;;;10.11;nan
48089;BME280;33867;50.314;7.802;2023-02-18T15:42:46;100852.91;;;10.05;nan
48089;BME280;33867;50.314;7.802;2023-02-18T15:46:13;100847.28;;;10.08;nan
48089;BME280;33867;50.314;7.802;2023-02-18T15:49:35;100846.03;;;10.12;nan
48089;BME280;33867;50.314;7.802;2023-02-18T15:52:57;100840.59;;;9.91;nan
48089;BME280;33867;50.314;7.802;2023-02-18T15:56:31;100836.81;;;9.93;nan
48089;BME280;33867;50.314;7.802;2023-02-18T16:00:17;100833.53;;;9.90;nan
48089;BME280;33867;50.314;7.802;2023-02-18T16:07:02;100831.81;;;9.89;nan
48089;BME280;33867;50.314;7.802;2023-02-18T16:13:51;100840.88;;;9.88;nan
48089;BME280;33867;50.314;7.802;2023-02-18T16:17:16;100833.28;;;9.82;nan
48089;BME280;33867;50.314;7.802;2023-02-18T16:20:37;100834.63;;;9.87;nan
48089;BME280;33867;50.314;7.802;2023-02-18T16:23:58;100830.88;;;9.79;nan
48089;BME280;33867;50.314;7.802;2023-02-18T16:27:18;100837.09;;;9.79;nan
48089;BME280;33867;50.314;7.802;2023-02-18T16:30:37;100838.94;;;9.79;nan
48089;BME280;33867;50.314;7.802;2023-02-18T16:33:59;100831.41;;;9.73;nan
48089;BME280;33867;50.314;7.802;2023-02-18T16:37:18;100842.16;;;9.73;nan
48089;BME280;33867;50.314;7.802;2023-02-18T16:44:55;100839.50;;;9.61;nan
48089;BME280;33867;50.314;7.802;2023-02-18T16:48:22;100844.72;;;9.63;nan
48089;BME280;33867;50.314;7.802;2023-02-18T16:51:43;100847.06;;;9.56;nan
48089;BME280;33867;50.314;7.802;2023-02-18T16:55:15;100849.75;;;9.56;nan
48089;BME280;33867;50.314;7.802;2023-02-18T16:58:34;100852.81;;;9.63;nan
48089;BME280;33867;50.314;7.802;2023-02-18T17:01:54;100848.16;;;9.65;nan
48089;BME280;33867;50.314;7.802;2023-02-18T17:05:19;100858.03;;;9.64;nan
48089;BME280;33867;50.314;7.802;2023-02-18T17:08:41;100854.25;;;9.56;nan
48089;BME280;33867;50.314;7.802;2023-02-18T17:12:00;100855.25;;;9.55;nan
48089;BME280;33867;50.314;7.802;2023-02-18T17:15:32;100866.59;;;9.58;nan
48089;BME280;33867;50.314;7.802;2023-02-18T17:26:27;100850.13;;;9.52;nan
48089;BME280;33867;50.314;7.802;2023-02-18T17:29:47;100856.63;;;9.49;nan
48089;BME280;33867;50.314;7.802;2023-02-18T17:33:10;100854.06;;;9.48;nan
48089;BME280;33867;50.314;7.802;2023-02-18T17:36:32;100858.19;;;9.52;nan
48089;BME280;33867;50.314;7.802;2023-02-18T17:54:24;100871.03;;;9.48;nan
48089;BME280;33867;50.314;7.802;2023-02-18T17:57:43;100892.63;;;9.47;nan
48089;BME280;33867;50.314;7.802;2023-02-18T18:08:43;100894.47;;;9.46;nan
48089;BME280;33867;50.314;7.802;2023-02-18T18:12:02;100891.91;;;9.45;nan
48089;BME280;33867;50.314;7.802;2023-02-18T18:15:27;100910.59;;;9.46;nan
48089;BME280;33867;50.314;7.802;2023-02-18T18:18:46;100895.84;;;9.41;nan
48089;BME280;33867;50.314;7.802;2023-02-18T18:22:07;100901.34;;;9.39;nan
48089;BME280;33867;50.314;7.802;2023-02-18T18:25:37;100899.00;;;9.46;nan
48089;BME280;33867;50.314;7.802;2023-02-18T18:28:56;100900.69;;;9.47;nan
48089;BME280;33867;50.314;7.802;2023-02-18T18:32:15;100900.34;;;9.40;nan
48089;BME280;33867;50.314;7.802;2023-02-18T18:35:34;100891.31;;;9.41;nan
48089;BME280;33867;50.314;7.802;2023-02-18T19:00:02;100916.59;;;9.27;nan
48089;BME280;33867;50.314;7.802;2023-02-18T19:03:23;100912.09;;;9.28;nan
48089;BME280;33867;50.314;7.802;2023-02-18T19:06:42;100912.09;;;9.28;nan
48089;BME280;33867;50.314;7.802;2023-02-18T19:24:33;100918.44;;;9.27;nan
48089;BME280;33867;50.314;7.802;2023-02-18T19:27:52;100910.63;;;9.24;nan
48089;BME280;33867;50.314;7.802;2023-02-18T19:31:12;100904.88;;;9.17;nan
48089;BME280;33867;50.314;7.802;2023-02-18T19:34:30;100902.91;;;9.19;nan
48089;BME280;33867;50.314;7.802;2023-02-18T19:37:50;100901.34;;;9.28;nan
48089;BME280;33867;50.314;7.802;2023-02-18T19:51:42;100897.41;;;9.21;nan
48089;BME280;33867;50.314;7.802;2023-02-18T19:55:01;100889.59;;;9.18;nan
48089;BME280;33867;50.314;7.802;2023-02-18T19:58:21;100871.53;;;9.20;nan
48089;BME280;33867;50.314;7.802;2023-02-18T20:01:38;100884.84;;;9.21;nan
48089;BME280;33867;50.314;7.802;2023-02-18T20:04:59;100882.28;;;9.20;nan
48089;BME280;33867;50.314;7.802;2023-02-18T20:08:21;100874.72;;;9.25;nan
48089;BME280;33867;50.314;7.802;2023-02-18T20:11:40;100879.13;;;9.26;nan
48089;BME280;33867;50.314;7.802;2023-02-18T20:14:59;100880.19;;;9.23;nan
48089;BME280;33867;50.314;7.802;2023-02-18T20:18:18;100867.84;;;9.21;nan
48089;BME280;33867;50.314;7.802;2023-02-18T20:21:37;100869.44;;;9.23;nan
48089;BME280;33867;50.314;7.802;2023-02-18T20:24:56;100874.47;;;9.28;nan
48089;BME280;33867;50.314;7.802;2023-02-18T20:28:16;100862.88;;;9.27;nan
48089;BME280;33867;50.314;7.802;2023-02-18T20:31:36;100855.53;;;9.29;nan
48089;BME280;33867;50.314;7.802;2023-02-18T20:34:55;100859.91;;;9.30;nan
48089;BME280;33867;50.314;7.802;2023-02-18T20:38:15;100848.44;;;9.28;nan
48089;BME280;33867;50.314;7.802;2023-02-18T20:41:34;100860.66;;;9.32;nan
48089;BME280;33867;50.314;7.802;2023-02-18T20:44:53;100849.03;;;9.32;nan
48089;BME280;33867;50.314;7.802;2023-02-18T20:48:12;100850.75;;;9.33;nan
48089;BME280;33867;50.314;7.802;2023-02-18T20:55:04;100839.78;;;9.36;nan
48089;BME280;33867;50.314;7.802;2023-02-18T20:58:23;100834.41;;;9.36;nan
48089;BME280;33867;50.314;7.802;2023-02-18T21:01:44;100836.97;;;9.37;nan
48089;BME280;33867;50.314;7.802;2023-02-18T21:05:03;100841.50;;;9.37;nan
48089;BME280;33867;50.314;7.802;2023-02-18T21:08:23;100836.09;;;9.37;nan
48089;BME280;33867;50.314;7.802;2023-02-18T21:11:43;100831.47;;;9.28;nan
48089;BME280;33867;50.314;7.802;2023-02-18T21:15:03;100841.72;;;9.34;nan
48089;BME280;33867;50.314;7.802;2023-02-18T21:18:22;100835.34;;;9.35;nan
48089;BME280;33867;50.314;7.802;2023-02-18T21:43:00;100806.56;;;9.26;nan
48089;BME280;33867;50.314;7.802;2023-02-18T21:46:22;100801.66;;;9.31;nan
48089;BME280;33867;50.314;7.802;2023-02-18T21:53:12;100797.13;;;9.31;nan
48089;BME280;33867;50.314;7.802;2023-02-18T21:56:31;100789.19;;;9.30;nan
48089;BME280;33867;50.314;7.802;2023-02-18T22:06:52;100779.91;;;9.23;nan
48089;BME280;33867;50.314;7.802;2023-02-18T22:42:53;100764.66;;;9.23;nan
48089;BME280;33867;50.314;7.802;2023-02-18T22:46:16;100755.00;;;9.21;nan
48089;BME280;33867;50.314;7.802;2023-02-18T23:04:17;100756.50;;;9.25;nan
48089;BME280;33867;50.314;7.802;2023-02-18T23:07:37;100749.03;;;9.17;nan
48089;BME280;33867;50.314;7.802;2023-02-18T23:58:23;100719.38;;;9.07;nan
